sensor_id;sensor_type;location;lat;lon;timestamp;P1;durP1;ratioP1;P2;durP2;ratioP2
14754;SDS011;7469;50.906;6.952;2022-11-06T00:00:27;8.20;;;3.80;;
14754;SDS011;7469;50.906;6.952;2022-11-06T00:02:56;8.97;;;4.07;;
14754;SDS011;7469;50.906;6.952;2022-11-06T00:05:25;8.50;;;3.60;;
14754;SDS011;7469;50.906;6.952;2022-11-06T00:08:12;6.43;;;3.83;;
14754;SDS011;7469;50.906;6.952;2022-11-06T00:10:41;8.23;;;3.57;;
14754;SDS011;7469;50.906;6.952;2022-11-06T00:13:09;6.90;;;3.47;;
14754;SDS011;7469;50.906;6.952;2022-11-06T00:15:37;6.17;;;3.33;;
14754;SDS011;7469;50.906;6.952;2022-11-06T00:18:05;4.93;;;3.13;;
14754;SDS011;7469;50.906;6.952;2022-11-06T00:20:33;7.07;;;3.20;;
14754;SDS011;7469;50.906;6.952;2022-11-06T00:23:01;10.03;;;3.13;;
14754;SDS011;7469;50.906;6.952;2022-11-06T00:25:30;7.73;;;3.57;;
14754;SDS011;7469;50.906;6.952;2022-11-06T00:27:58;4.03;;;2.83;;
14754;SDS011;7469;50.906;6.952;2022-11-06T00:30:26;6.03;;;3.03;;
14754;SDS011;7469;50.906;6.952;2022-11-06T00:32:54;9.13;;;3.90;;
14754;SDS011;7469;50.906;6.952;2022-11-06T00:35:21;6.67;;;3.93;;
14754;SDS011;7469;50.906;6.952;2022-11-06T00:37:49;5.53;;;3.70;;
14754;SDS011;7469;50.906;6.952;2022-11-06T00:40:17;7.03;;;3.47;;
14754;SDS011;7469;50.906;6.952;2022-11-06T00:42:47;7.73;;;4.10;;
14754;SDS011;7469;50.906;6.952;2022-11-06T00:45:19;6.33;;;3.60;;
14754;SDS011;7469;50.906;6.952;2022-11-06T00:47:47;5.90;;;3.73;;
14754;SDS011;7469;50.906;6.952;2022-11-06T00:50:15;5.93;;;3.60;;
14754;SDS011;7469;50.906;6.952;2022-11-06T00:52:43;7.20;;;3.50;;
14754;SDS011;7469;50.906;6.952;2022-11-06T00:55:11;7.23;;;3.87;;
14754;SDS011;7469;50.906;6.952;2022-11-06T00:57:39;7.57;;;3.90;;
14754;SDS011;7469;50.906;6.952;2022-11-06T01:00:09;7.13;;;3.77;;
14754;SDS011;7469;50.906;6.952;2022-11-06T01:02:38;6.47;;;3.73;;
14754;SDS011;7469;50.906;6.952;2022-11-06T01:05:06;7.00;;;3.87;;
14754;SDS011;7469;50.906;6.952;2022-11-06T01:07:34;8.13;;;3.70;;
14754;SDS011;7469;50.906;6.952;2022-11-06T01:10:02;6.17;;;3.10;;
14754;SDS011;7469;50.906;6.952;2022-11-06T01:12:31;5.47;;;3.00;;
14754;SDS011;7469;50.906;6.952;2022-11-06T01:14:59;5.37;;;3.00;;
14754;SDS011;7469;50.906;6.952;2022-11-06T01:17:28;5.03;;;2.87;;
14754;SDS011;7469;50.906;6.952;2022-11-06T01:19:56;8.10;;;3.73;;
14754;SDS011;7469;50.906;6.952;2022-11-06T01:22:24;4.93;;;3.30;;
14754;SDS011;7469;50.906;6.952;2022-11-06T01:24:52;5.03;;;3.33;;
14754;SDS011;7469;50.906;6.952;2022-11-06T01:27:20;4.70;;;2.80;;
14754;SDS011;7469;50.906;6.952;2022-11-06T01:29:52;6.83;;;3.13;;
14754;SDS011;7469;50.906;6.952;2022-11-06T01:32:20;12.03;;;3.10;;
14754;SDS011;7469;50.906;6.952;2022-11-06T01:34:50;8.67;;;3.57;;
14754;SDS011;7469;50.906;6.952;2022-11-06T01:37:18;7.83;;;3.37;;
14754;SDS011;7469;50.906;6.952;2022-11-06T01:39:47;6.93;;;3.20;;
14754;SDS011;7469;50.906;6.952;2022-11-06T01:42:16;4.57;;;3.20;;
14754;SDS011;7469;50.906;6.952;2022-11-06T01:47:48;6.70;;;2.60;;
14754;SDS011;7469;50.906;6.952;2022-11-06T01:50:17;5.33;;;2.50;;
14754;SDS011;7469;50.906;6.952;2022-11-06T01:52:46;6.33;;;2.70;;
14754;SDS011;7469;50.906;6.952;2022-11-06T01:55:17;6.93;;;2.50;;
14754;SDS011;7469;50.906;6.952;2022-11-06T01:57:49;7.10;;;2.27;;
14754;SDS011;7469;50.906;6.952;2022-11-06T02:00:17;6.60;;;2.50;;
14754;SDS011;7469;50.906;6.952;2022-11-06T02:02:46;6.37;;;2.30;;
14754;SDS011;7469;50.906;6.952;2022-11-06T02:05:15;4.03;;;2.13;;
14754;SDS011;7469;50.906;6.952;2022-11-06T02:07:44;3.37;;;2.00;;
14754;SDS011;7469;50.906;6.952;2022-11-06T02:10:12;6.07;;;2.30;;
14754;SDS011;7469;50.906;6.952;2022-11-06T02:12:46;5.97;;;2.10;;
14754;SDS011;7469;50.906;6.952;2022-11-06T02:15:22;6.67;;;2.40;;
14754;SDS011;7469;50.906;6.952;2022-11-06T02:18:03;2.80;;;1.97;;
14754;SDS011;7469;50.906;6.952;2022-11-06T02:20:43;7.50;;;1.93;;
14754;SDS011;7469;50.906;6.952;2022-11-06T02:23:44;4.83;;;2.07;;
14754;SDS011;7469;50.906;6.952;2022-11-06T02:26:33;5.20;;;2.07;;
14754;SDS011;7469;50.906;6.952;2022-11-06T02:29:25;4.90;;;1.53;;
14754;SDS011;7469;50.906;6.952;2022-11-06T02:31:58;8.77;;;2.27;;
14754;SDS011;7469;50.906;6.952;2022-11-06T02:34:29;5.43;;;2.17;;
14754;SDS011;7469;50.906;6.952;2022-11-06T02:36:59;4.43;;;1.93;;
14754;SDS011;7469;50.906;6.952;2022-11-06T02:39:30;7.83;;;1.87;;
14754;SDS011;7469;50.906;6.952;2022-11-06T02:42:03;3.70;;;2.00;;
14754;SDS011;7469;50.906;6.952;2022-11-06T02:44:35;4.63;;;2.10;;
14754;SDS011;7469;50.906;6.952;2022-11-06T02:47:05;9.00;;;2.60;;
14754;SDS011;7469;50.906;6.952;2022-11-06T02:49:37;7.67;;;2.00;;
14754;SDS011;7469;50.906;6.952;2022-11-06T02:52:07;4.73;;;2.20;;
14754;SDS011;7469;50.906;6.952;2022-11-06T02:54:39;6.60;;;2.40;;
14754;SDS011;7469;50.906;6.952;2022-11-06T02:57:13;7.50;;;2.30;;
14754;SDS011;7469;50.906;6.952;2022-11-06T02:59:46;5.10;;;2.10;;
14754;SDS011;7469;50.906;6.952;2022-11-06T03:02:22;3.97;;;2.20;;
14754;SDS011;7469;50.906;6.952;2022-11-06T03:04:54;4.00;;;1.80;;
14754;SDS011;7469;50.906;6.952;2022-11-06T03:07:30;4.87;;;1.87;;
14754;SDS011;7469;50.906;6.952;2022-11-06T03:10:03;7.50;;;1.93;;
14754;SDS011;7469;50.906;6.952;2022-11-06T03:12:35;5.07;;;1.87;;
14754;SDS011;7469;50.906;6.952;2022-11-06T03:15:12;3.50;;;2.23;;
14754;SDS011;7469;50.906;6.952;2022-11-06T03:17:45;4.70;;;1.90;;
14754;SDS011;7469;50.906;6.952;2022-11-06T03:20:17;7.20;;;2.40;;
14754;SDS011;7469;50.906;6.952;2022-11-06T03:22:50;5.53;;;2.10;;
14754;SDS011;7469;50.906;6.952;2022-11-06T03:25:24;4.60;;;2.33;;
14754;SDS011;7469;50.906;6.952;2022-11-06T03:28:00;5.37;;;2.17;;
14754;SDS011;7469;50.906;6.952;2022-11-06T03:30:31;5.50;;;1.90;;
14754;SDS011;7469;50.906;6.952;2022-11-06T03:33:04;3.87;;;2.37;;
14754;SDS011;7469;50.906;6.952;2022-11-06T03:35:39;7.93;;;2.17;;
14754;SDS011;7469;50.906;6.952;2022-11-06T03:38:12;5.87;;;2.20;;
14754;SDS011;7469;50.906;6.952;2022-11-06T03:40:46;5.53;;;2.07;;
14754;SDS011;7469;50.906;6.952;2022-11-06T03:43:18;4.27;;;1.83;;
14754;SDS011;7469;50.906;6.952;2022-11-06T03:45:50;7.93;;;1.97;;
14754;SDS011;7469;50.906;6.952;2022-11-06T03:48:22;5.33;;;1.80;;
14754;SDS011;7469;50.906;6.952;2022-11-06T03:50:57;4.53;;;1.77;;
14754;SDS011;7469;50.906;6.952;2022-11-06T03:53:29;5.83;;;1.93;;
14754;SDS011;7469;50.906;6.952;2022-11-06T03:56:01;2.20;;;1.67;;
14754;SDS011;7469;50.906;6.952;2022-11-06T03:58:35;4.27;;;2.03;;
14754;SDS011;7469;50.906;6.952;2022-11-06T04:01:06;4.20;;;1.80;;
14754;SDS011;7469;50.906;6.952;2022-11-06T04:03:38;4.57;;;2.10;;
14754;SDS011;7469;50.906;6.952;2022-11-06T04:06:12;6.17;;;1.80;;
14754;SDS011;7469;50.906;6.952;2022-11-06T04:08:43;3.93;;;1.80;;
14754;SDS011;7469;50.906;6.952;2022-11-06T04:11:30;4.27;;;2.10;;
14754;SDS011;7469;50.906;6.952;2022-11-06T04:14:20;6.40;;;1.93;;
14754;SDS011;7469;50.906;6.952;2022-11-06T04:16:53;5.60;;;1.80;;
14754;SDS011;7469;50.906;6.952;2022-11-06T04:19:25;4.33;;;1.90;;
14754;SDS011;7469;50.906;6.952;2022-11-06T04:22:10;5.60;;;2.23;;
14754;SDS011;7469;50.906;6.952;2022-11-06T04:24:55;4.40;;;1.60;;
14754;SDS011;7469;50.906;6.952;2022-11-06T04:27:51;4.93;;;1.83;;
14754;SDS011;7469;50.906;6.952;2022-11-06T04:30:30;8.20;;;2.30;;
14754;SDS011;7469;50.906;6.952;2022-11-06T04:33:06;3.70;;;1.90;;
14754;SDS011;7469;50.906;6.952;2022-11-06T04:35:41;4.37;;;1.93;;
14754;SDS011;7469;50.906;6.952;2022-11-06T04:38:20;3.63;;;1.50;;
14754;SDS011;7469;50.906;6.952;2022-11-06T04:40:54;6.90;;;2.00;;
14754;SDS011;7469;50.906;6.952;2022-11-06T04:43:30;5.23;;;1.47;;
14754;SDS011;7469;50.906;6.952;2022-11-06T04:46:08;6.80;;;1.63;;
14754;SDS011;7469;50.906;6.952;2022-11-06T04:48:39;7.50;;;1.90;;
14754;SDS011;7469;50.906;6.952;2022-11-06T04:51:08;4.40;;;1.30;;
14754;SDS011;7469;50.906;6.952;2022-11-06T04:53:37;7.43;;;1.70;;
14754;SDS011;7469;50.906;6.952;2022-11-06T04:56:08;3.03;;;1.50;;
14754;SDS011;7469;50.906;6.952;2022-11-06T04:58:37;4.13;;;1.60;;
14754;SDS011;7469;50.906;6.952;2022-11-06T05:01:05;3.53;;;1.60;;
14754;SDS011;7469;50.906;6.952;2022-11-06T05:03:34;6.33;;;1.97;;
14754;SDS011;7469;50.906;6.952;2022-11-06T05:06:03;3.63;;;1.60;;
14754;SDS011;7469;50.906;6.952;2022-11-06T05:08:31;2.27;;;1.30;;
14754;SDS011;7469;50.906;6.952;2022-11-06T05:10:59;5.93;;;1.90;;
14754;SDS011;7469;50.906;6.952;2022-11-06T05:13:27;3.63;;;1.60;;
14754;SDS011;7469;50.906;6.952;2022-11-06T05:15:55;7.30;;;1.70;;
14754;SDS011;7469;50.906;6.952;2022-11-06T05:18:24;3.40;;;1.73;;
14754;SDS011;7469;50.906;6.952;2022-11-06T05:20:57;3.20;;;1.43;;
14754;SDS011;7469;50.906;6.952;2022-11-06T05:23:39;2.97;;;1.53;;
14754;SDS011;7469;50.906;6.952;2022-11-06T05:26:09;4.30;;;1.40;;
14754;SDS011;7469;50.906;6.952;2022-11-06T05:28:37;9.53;;;2.03;;
14754;SDS011;7469;50.906;6.952;2022-11-06T05:31:05;7.33;;;1.30;;
14754;SDS011;7469;50.906;6.952;2022-11-06T05:33:33;5.70;;;2.00;;
14754;SDS011;7469;50.906;6.952;2022-11-06T05:36:03;3.00;;;1.50;;
14754;SDS011;7469;50.906;6.952;2022-11-06T05:38:32;4.13;;;1.60;;
14754;SDS011;7469;50.906;6.952;2022-11-06T05:41:00;4.77;;;1.80;;
14754;SDS011;7469;50.906;6.952;2022-11-06T05:43:28;8.97;;;1.77;;
14754;SDS011;7469;50.906;6.952;2022-11-06T05:45:55;4.70;;;1.53;;
14754;SDS011;7469;50.906;6.952;2022-11-06T05:48:25;4.37;;;1.53;;
14754;SDS011;7469;50.906;6.952;2022-11-06T05:50:58;4.10;;;1.60;;
14754;SDS011;7469;50.906;6.952;2022-11-06T05:53:28;5.40;;;1.73;;
14754;SDS011;7469;50.906;6.952;2022-11-06T05:55:56;6.20;;;2.00;;
14754;SDS011;7469;50.906;6.952;2022-11-06T05:58:24;4.40;;;1.60;;
14754;SDS011;7469;50.906;6.952;2022-11-06T06:00:52;5.73;;;1.90;;
14754;SDS011;7469;50.906;6.952;2022-11-06T06:03:21;3.43;;;1.37;;
14754;SDS011;7469;50.906;6.952;2022-11-06T06:05:50;3.97;;;1.50;;
14754;SDS011;7469;50.906;6.952;2022-11-06T06:08:19;2.37;;;1.30;;
14754;SDS011;7469;50.906;6.952;2022-11-06T06:10:49;3.63;;;1.50;;
14754;SDS011;7469;50.906;6.952;2022-11-06T06:13:16;3.50;;;1.60;;
14754;SDS011;7469;50.906;6.952;2022-11-06T06:15:44;3.03;;;1.47;;
14754;SDS011;7469;50.906;6.952;2022-11-06T06:18:12;3.13;;;1.30;;
14754;SDS011;7469;50.906;6.952;2022-11-06T06:20:40;4.33;;;1.60;;
14754;SDS011;7469;50.906;6.952;2022-11-06T06:23:09;7.20;;;2.07;;
14754;SDS011;7469;50.906;6.952;2022-11-06T06:25:37;7.73;;;1.70;;
14754;SDS011;7469;50.906;6.952;2022-11-06T06:28:06;5.67;;;1.47;;
14754;SDS011;7469;50.906;6.952;2022-11-06T06:30:34;4.60;;;1.97;;
14754;SDS011;7469;50.906;6.952;2022-11-06T06:33:02;4.17;;;1.47;;
14754;SDS011;7469;50.906;6.952;2022-11-06T06:35:31;6.90;;;2.33;;
14754;SDS011;7469;50.906;6.952;2022-11-06T06:37:59;3.90;;;1.60;;
14754;SDS011;7469;50.906;6.952;2022-11-06T06:40:27;4.77;;;1.43;;
14754;SDS011;7469;50.906;6.952;2022-11-06T06:42:56;3.83;;;1.40;;
14754;SDS011;7469;50.906;6.952;2022-11-06T06:45:26;2.73;;;1.37;;
14754;SDS011;7469;50.906;6.952;2022-11-06T06:47:55;2.53;;;1.50;;
14754;SDS011;7469;50.906;6.952;2022-11-06T06:50:30;3.77;;;1.67;;
14754;SDS011;7469;50.906;6.952;2022-11-06T06:52:58;1.33;;;1.23;;
14754;SDS011;7469;50.906;6.952;2022-11-06T06:55:26;2.63;;;1.47;;
14754;SDS011;7469;50.906;6.952;2022-11-06T06:57:55;3.57;;;1.40;;
14754;SDS011;7469;50.906;6.952;2022-11-06T07:00:24;3.80;;;1.57;;
14754;SDS011;7469;50.906;6.952;2022-11-06T07:02:53;5.20;;;1.83;;
14754;SDS011;7469;50.906;6.952;2022-11-06T07:05:21;8.87;;;1.60;;
14754;SDS011;7469;50.906;6.952;2022-11-06T07:07:51;5.27;;;1.43;;
14754;SDS011;7469;50.906;6.952;2022-11-06T07:10:19;3.80;;;1.87;;
14754;SDS011;7469;50.906;6.952;2022-11-06T07:12:47;3.77;;;1.90;;
14754;SDS011;7469;50.906;6.952;2022-11-06T07:15:15;5.60;;;1.53;;
14754;SDS011;7469;50.906;6.952;2022-11-06T07:17:44;4.13;;;1.90;;
14754;SDS011;7469;50.906;6.952;2022-11-06T07:20:12;2.80;;;1.50;;
14754;SDS011;7469;50.906;6.952;2022-11-06T07:22:40;6.67;;;1.80;;
14754;SDS011;7469;50.906;6.952;2022-11-06T07:25:09;3.67;;;1.57;;
14754;SDS011;7469;50.906;6.952;2022-11-06T07:27:37;5.13;;;1.47;;
14754;SDS011;7469;50.906;6.952;2022-11-06T07:30:06;3.23;;;1.37;;
14754;SDS011;7469;50.906;6.952;2022-11-06T07:32:37;4.13;;;1.83;;
14754;SDS011;7469;50.906;6.952;2022-11-06T07:35:07;6.50;;;1.83;;
14754;SDS011;7469;50.906;6.952;2022-11-06T07:37:36;5.67;;;1.90;;
14754;SDS011;7469;50.906;6.952;2022-11-06T07:40:06;3.27;;;1.53;;
14754;SDS011;7469;50.906;6.952;2022-11-06T07:42:36;5.33;;;1.93;;
14754;SDS011;7469;50.906;6.952;2022-11-06T07:45:09;7.00;;;1.83;;
14754;SDS011;7469;50.906;6.952;2022-11-06T07:47:37;3.67;;;1.60;;
14754;SDS011;7469;50.906;6.952;2022-11-06T07:50:05;5.50;;;1.93;;
14754;SDS011;7469;50.906;6.952;2022-11-06T07:52:34;4.97;;;1.80;;
14754;SDS011;7469;50.906;6.952;2022-11-06T07:55:02;3.53;;;1.80;;
14754;SDS011;7469;50.906;6.952;2022-11-06T07:57:33;5.17;;;1.80;;
14754;SDS011;7469;50.906;6.952;2022-11-06T08:00:02;1.97;;;1.60;;
14754;SDS011;7469;50.906;6.952;2022-11-06T08:02:31;6.00;;;1.73;;
14754;SDS011;7469;50.906;6.952;2022-11-06T08:04:59;4.93;;;1.70;;
14754;SDS011;7469;50.906;6.952;2022-11-06T08:07:28;1.57;;;1.33;;
14754;SDS011;7469;50.906;6.952;2022-11-06T08:09:56;3.17;;;1.73;;
14754;SDS011;7469;50.906;6.952;2022-11-06T08:12:24;5.20;;;2.00;;
14754;SDS011;7469;50.906;6.952;2022-11-06T08:14:52;8.37;;;1.87;;
14754;SDS011;7469;50.906;6.952;2022-11-06T08:17:20;5.53;;;1.93;;
14754;SDS011;7469;50.906;6.952;2022-11-06T08:19:48;8.43;;;2.03;;
14754;SDS011;7469;50.906;6.952;2022-11-06T08:22:16;6.10;;;1.77;;
14754;SDS011;7469;50.906;6.952;2022-11-06T08:24:45;5.37;;;1.83;;
14754;SDS011;7469;50.906;6.952;2022-11-06T08:27:13;3.80;;;1.80;;
14754;SDS011;7469;50.906;6.952;2022-11-06T08:29:41;3.47;;;1.60;;
14754;SDS011;7469;50.906;6.952;2022-11-06T08:32:09;7.07;;;2.13;;
14754;SDS011;7469;50.906;6.952;2022-11-06T08:34:37;7.23;;;1.90;;
14754;SDS011;7469;50.906;6.952;2022-11-06T08:37:05;7.80;;;1.93;;
14754;SDS011;7469;50.906;6.952;2022-11-06T08:39:32;4.07;;;1.90;;
14754;SDS011;7469;50.906;6.952;2022-11-06T08:42:01;5.77;;;2.30;;
14754;SDS011;7469;50.906;6.952;2022-11-06T08:44:30;6.70;;;2.03;;
14754;SDS011;7469;50.906;6.952;2022-11-06T08:46:58;4.03;;;1.73;;
14754;SDS011;7469;50.906;6.952;2022-11-06T08:49:25;5.10;;;1.83;;
14754;SDS011;7469;50.906;6.952;2022-11-06T08:51:53;5.57;;;2.10;;
14754;SDS011;7469;50.906;6.952;2022-11-06T08:54:21;5.43;;;1.90;;
14754;SDS011;7469;50.906;6.952;2022-11-06T08:56:51;5.47;;;2.00;;
14754;SDS011;7469;50.906;6.952;2022-11-06T08:59:20;6.47;;;1.93;;
14754;SDS011;7469;50.906;6.952;2022-11-06T09:01:48;5.23;;;2.33;;
14754;SDS011;7469;50.906;6.952;2022-11-06T09:04:16;5.53;;;2.10;;
14754;SDS011;7469;50.906;6.952;2022-11-06T09:06:44;9.17;;;2.63;;
14754;SDS011;7469;50.906;6.952;2022-11-06T09:09:12;4.13;;;2.10;;
14754;SDS011;7469;50.906;6.952;2022-11-06T09:11:40;5.07;;;2.60;;
14754;SDS011;7469;50.906;6.952;2022-11-06T09:14:08;3.37;;;1.73;;
14754;SDS011;7469;50.906;6.952;2022-11-06T09:16:37;7.10;;;1.93;;
14754;SDS011;7469;50.906;6.952;2022-11-06T09:19:05;7.70;;;2.30;;
14754;SDS011;7469;50.906;6.952;2022-11-06T09:21:33;3.60;;;1.90;;
14754;SDS011;7469;50.906;6.952;2022-11-06T09:24:02;5.40;;;1.93;;
14754;SDS011;7469;50.906;6.952;2022-11-06T09:26:30;6.23;;;2.20;;
14754;SDS011;7469;50.906;6.952;2022-11-06T09:28:58;6.57;;;2.37;;
14754;SDS011;7469;50.906;6.952;2022-11-06T09:31:26;10.43;;;3.97;;
14754;SDS011;7469;50.906;6.952;2022-11-06T09:33:55;28.57;;;11.77;;
14754;SDS011;7469;50.906;6.952;2022-11-06T09:36:23;14.30;;;6.43;;
14754;SDS011;7469;50.906;6.952;2022-11-06T09:38:51;3.87;;;2.20;;
14754;SDS011;7469;50.906;6.952;2022-11-06T09:41:19;3.47;;;1.90;;
14754;SDS011;7469;50.906;6.952;2022-11-06T09:43:55;6.57;;;2.43;;
14754;SDS011;7469;50.906;6.952;2022-11-06T09:46:37;4.60;;;2.27;;
14754;SDS011;7469;50.906;6.952;2022-11-06T09:49:11;5.17;;;2.20;;
14754;SDS011;7469;50.906;6.952;2022-11-06T09:51:46;4.13;;;2.07;;
14754;SDS011;7469;50.906;6.952;2022-11-06T09:54:19;5.23;;;2.30;;
14754;SDS011;7469;50.906;6.952;2022-11-06T09:56:54;4.70;;;2.23;;
14754;SDS011;7469;50.906;6.952;2022-11-06T09:59:27;10.33;;;2.37;;
14754;SDS011;7469;50.906;6.952;2022-11-06T10:01:58;5.83;;;2.17;;
14754;SDS011;7469;50.906;6.952;2022-11-06T10:04:29;6.97;;;2.50;;
14754;SDS011;7469;50.906;6.952;2022-11-06T10:07:10;5.23;;;2.50;;
14754;SDS011;7469;50.906;6.952;2022-11-06T10:09:48;3.43;;;2.20;;
14754;SDS011;7469;50.906;6.952;2022-11-06T10:12:17;4.03;;;2.33;;
14754;SDS011;7469;50.906;6.952;2022-11-06T10:14:53;2.90;;;1.90;;
14754;SDS011;7469;50.906;6.952;2022-11-06T10:17:33;5.43;;;2.40;;
14754;SDS011;7469;50.906;6.952;2022-11-06T10:20:14;6.17;;;2.73;;
14754;SDS011;7469;50.906;6.952;2022-11-06T10:22:55;7.43;;;2.70;;
14754;SDS011;7469;50.906;6.952;2022-11-06T10:25:42;7.50;;;2.30;;
14754;SDS011;7469;50.906;6.952;2022-11-06T10:28:22;6.13;;;2.70;;
14754;SDS011;7469;50.906;6.952;2022-11-06T10:31:02;10.90;;;2.50;;
14754;SDS011;7469;50.906;6.952;2022-11-06T10:33:40;4.27;;;2.40;;
14754;SDS011;7469;50.906;6.952;2022-11-06T10:36:18;6.00;;;2.40;;
14754;SDS011;7469;50.906;6.952;2022-11-06T10:38:48;3.73;;;2.03;;
14754;SDS011;7469;50.906;6.952;2022-11-06T10:41:18;4.43;;;2.20;;
14754;SDS011;7469;50.906;6.952;2022-11-06T10:43:51;4.13;;;2.23;;
14754;SDS011;7469;50.906;6.952;2022-11-06T10:46:22;7.20;;;2.70;;
14754;SDS011;7469;50.906;6.952;2022-11-06T10:48:56;5.67;;;2.40;;
14754;SDS011;7469;50.906;6.952;2022-11-06T10:51:39;3.37;;;1.93;;
14754;SDS011;7469;50.906;6.952;2022-11-06T10:54:22;3.93;;;2.30;;
14754;SDS011;7469;50.906;6.952;2022-11-06T10:57:00;7.10;;;2.40;;
14754;SDS011;7469;50.906;6.952;2022-11-06T10:59:45;3.00;;;2.33;;
14754;SDS011;7469;50.906;6.952;2022-11-06T11:02:19;5.30;;;2.30;;
14754;SDS011;7469;50.906;6.952;2022-11-06T11:04:51;4.80;;;2.20;;
14754;SDS011;7469;50.906;6.952;2022-11-06T11:07:24;4.83;;;2.50;;
14754;SDS011;7469;50.906;6.952;2022-11-06T11:09:55;7.47;;;2.63;;
14754;SDS011;7469;50.906;6.952;2022-11-06T11:12:24;6.03;;;2.50;;
14754;SDS011;7469;50.906;6.952;2022-11-06T11:15:05;2.90;;;1.93;;
14754;SDS011;7469;50.906;6.952;2022-11-06T11:17:40;3.23;;;2.17;;
14754;SDS011;7469;50.906;6.952;2022-11-06T11:20:27;8.20;;;2.40;;
14754;SDS011;7469;50.906;6.952;2022-11-06T11:23:05;5.87;;;2.43;;
14754;SDS011;7469;50.906;6.952;2022-11-06T11:25:38;4.23;;;2.07;;
14754;SDS011;7469;50.906;6.952;2022-11-06T11:28:11;4.00;;;2.23;;
14754;SDS011;7469;50.906;6.952;2022-11-06T11:30:52;2.90;;;2.20;;
14754;SDS011;7469;50.906;6.952;2022-11-06T11:33:23;3.97;;;2.07;;
14754;SDS011;7469;50.906;6.952;2022-11-06T11:35:52;6.00;;;2.20;;
14754;SDS011;7469;50.906;6.952;2022-11-06T11:38:22;4.13;;;2.20;;
14754;SDS011;7469;50.906;6.952;2022-11-06T11:40:51;4.40;;;2.63;;
14754;SDS011;7469;50.906;6.952;2022-11-06T11:43:31;5.03;;;2.53;;
14754;SDS011;7469;50.906;6.952;2022-11-06T11:48:47;2.87;;;1.83;;
14754;SDS011;7469;50.906;6.952;2022-11-06T11:54:05;4.13;;;2.00;;
14754;SDS011;7469;50.906;6.952;2022-11-06T11:56:43;4.43;;;2.20;;
14754;SDS011;7469;50.906;6.952;2022-11-06T11:59:33;3.63;;;2.20;;
14754;SDS011;7469;50.906;6.952;2022-11-06T12:02:11;6.17;;;2.20;;
14754;SDS011;7469;50.906;6.952;2022-11-06T12:04:49;4.40;;;2.23;;
14754;SDS011;7469;50.906;6.952;2022-11-06T12:07:21;3.77;;;2.17;;
14754;SDS011;7469;50.906;6.952;2022-11-06T12:09:53;4.30;;;1.70;;
14754;SDS011;7469;50.906;6.952;2022-11-06T12:12:22;3.70;;;1.83;;
14754;SDS011;7469;50.906;6.952;2022-11-06T12:15:02;3.43;;;1.93;;
14754;SDS011;7469;50.906;6.952;2022-11-06T12:17:32;3.40;;;1.27;;
14754;SDS011;7469;50.906;6.952;2022-11-06T12:20:02;2.17;;;1.67;;
14754;SDS011;7469;50.906;6.952;2022-11-06T12:22:39;5.20;;;2.23;;
14754;SDS011;7469;50.906;6.952;2022-11-06T12:25:12;4.80;;;1.80;;
14754;SDS011;7469;50.906;6.952;2022-11-06T12:27:46;6.53;;;2.00;;
14754;SDS011;7469;50.906;6.952;2022-11-06T12:30:17;5.17;;;1.90;;
14754;SDS011;7469;50.906;6.952;2022-11-06T12:32:50;8.17;;;1.90;;
14754;SDS011;7469;50.906;6.952;2022-11-06T12:35:23;2.80;;;1.73;;
14754;SDS011;7469;50.906;6.952;2022-11-06T12:37:57;3.80;;;1.53;;
14754;SDS011;7469;50.906;6.952;2022-11-06T12:40:33;2.40;;;1.70;;
14754;SDS011;7469;50.906;6.952;2022-11-06T12:43:12;3.40;;;1.60;;
14754;SDS011;7469;50.906;6.952;2022-11-06T12:45:54;2.97;;;1.73;;
14754;SDS011;7469;50.906;6.952;2022-11-06T12:48:32;6.13;;;1.80;;
14754;SDS011;7469;50.906;6.952;2022-11-06T12:51:15;2.67;;;1.53;;
14754;SDS011;7469;50.906;6.952;2022-11-06T12:53:51;3.67;;;2.10;;
14754;SDS011;7469;50.906;6.952;2022-11-06T12:56:32;3.83;;;1.80;;
14754;SDS011;7469;50.906;6.952;2022-11-06T12:59:13;5.57;;;1.77;;
14754;SDS011;7469;50.906;6.952;2022-11-06T13:01:53;2.93;;;1.47;;
14754;SDS011;7469;50.906;6.952;2022-11-06T13:04:33;2.03;;;1.50;;
14754;SDS011;7469;50.906;6.952;2022-11-06T13:13:07;1.93;;;1.40;;
14754;SDS011;7469;50.906;6.952;2022-11-06T13:15:54;1.70;;;1.27;;
14754;SDS011;7469;50.906;6.952;2022-11-06T13:18:29;7.17;;;1.90;;
14754;SDS011;7469;50.906;6.952;2022-11-06T13:21:00;4.40;;;1.70;;
14754;SDS011;7469;50.906;6.952;2022-11-06T13:23:33;3.27;;;1.70;;
14754;SDS011;7469;50.906;6.952;2022-11-06T13:26:05;2.47;;;1.50;;
14754;SDS011;7469;50.906;6.952;2022-11-06T13:28:41;2.20;;;1.00;;
14754;SDS011;7469;50.906;6.952;2022-11-06T13:31:13;2.10;;;1.50;;
14754;SDS011;7469;50.906;6.952;2022-11-06T13:33:45;3.53;;;1.40;;
14754;SDS011;7469;50.906;6.952;2022-11-06T13:36:15;2.83;;;1.40;;
14754;SDS011;7469;50.906;6.952;2022-11-06T13:38:46;4.33;;;1.47;;
14754;SDS011;7469;50.906;6.952;2022-11-06T13:41:20;3.33;;;1.53;;
14754;SDS011;7469;50.906;6.952;2022-11-06T13:43:53;3.20;;;1.60;;
14754;SDS011;7469;50.906;6.952;2022-11-06T13:46:26;5.83;;;1.63;;
14754;SDS011;7469;50.906;6.952;2022-11-06T13:49:05;4.57;;;1.30;;
14754;SDS011;7469;50.906;6.952;2022-11-06T13:51:44;2.00;;;1.53;;
14754;SDS011;7469;50.906;6.952;2022-11-06T13:54:18;4.00;;;1.50;;
14754;SDS011;7469;50.906;6.952;2022-11-06T13:57:02;4.20;;;1.70;;
14754;SDS011;7469;50.906;6.952;2022-11-06T14:02:43;3.40;;;1.50;;
14754;SDS011;7469;50.906;6.952;2022-11-06T14:05:43;4.00;;;1.40;;
14754;SDS011;7469;50.906;6.952;2022-11-06T14:08:18;2.03;;;1.40;;
14754;SDS011;7469;50.906;6.952;2022-11-06T14:10:51;5.70;;;1.40;;
14754;SDS011;7469;50.906;6.952;2022-11-06T14:13:26;2.93;;;1.23;;
14754;SDS011;7469;50.906;6.952;2022-11-06T14:15:58;4.90;;;1.43;;
14754;SDS011;7469;50.906;6.952;2022-11-06T14:18:29;2.90;;;1.10;;
14754;SDS011;7469;50.906;6.952;2022-11-06T14:24:13;2.97;;;1.57;;
14754;SDS011;7469;50.906;6.952;2022-11-06T14:26:44;2.67;;;1.30;;
14754;SDS011;7469;50.906;6.952;2022-11-06T14:32:37;2.13;;;1.43;;
14754;SDS011;7469;50.906;6.952;2022-11-06T14:44:25;1.37;;;1.17;;
14754;SDS011;7469;50.906;6.952;2022-11-06T14:47:06;3.93;;;1.23;;
14754;SDS011;7469;50.906;6.952;2022-11-06T14:49:48;2.53;;;1.20;;
14754;SDS011;7469;50.906;6.952;2022-11-06T14:52:18;2.27;;;1.60;;
14754;SDS011;7469;50.906;6.952;2022-11-06T14:54:53;2.13;;;1.60;;
14754;SDS011;7469;50.906;6.952;2022-11-06T14:57:34;2.33;;;1.20;;
14754;SDS011;7469;50.906;6.952;2022-11-06T15:00:10;2.03;;;1.30;;
14754;SDS011;7469;50.906;6.952;2022-11-06T15:02:41;3.87;;;1.30;;
14754;SDS011;7469;50.906;6.952;2022-11-06T15:05:12;2.53;;;1.40;;
14754;SDS011;7469;50.906;6.952;2022-11-06T15:07:51;2.80;;;1.30;;
14754;SDS011;7469;50.906;6.952;2022-11-06T15:10:52;2.83;;;1.20;;
14754;SDS011;7469;50.906;6.952;2022-11-06T15:13:24;2.47;;;1.20;;
14754;SDS011;7469;50.906;6.952;2022-11-06T15:15:56;2.63;;;1.33;;
14754;SDS011;7469;50.906;6.952;2022-11-06T15:18:29;5.10;;;1.40;;
14754;SDS011;7469;50.906;6.952;2022-11-06T15:21:01;2.60;;;1.17;;
14754;SDS011;7469;50.906;6.952;2022-11-06T15:23:33;1.20;;;1.10;;
14754;SDS011;7469;50.906;6.952;2022-11-06T15:26:14;1.50;;;1.33;;
14754;SDS011;7469;50.906;6.952;2022-11-06T15:28:51;2.13;;;1.50;;
14754;SDS011;7469;50.906;6.952;2022-11-06T15:31:29;2.27;;;1.47;;
14754;SDS011;7469;50.906;6.952;2022-11-06T15:34:00;5.00;;;1.67;;
14754;SDS011;7469;50.906;6.952;2022-11-06T15:36:33;2.40;;;1.43;;
14754;SDS011;7469;50.906;6.952;2022-11-06T15:42:08;2.80;;;1.70;;
14754;SDS011;7469;50.906;6.952;2022-11-06T15:44:40;1.87;;;1.50;;
14754;SDS011;7469;50.906;6.952;2022-11-06T15:47:18;3.27;;;1.60;;
14754;SDS011;7469;50.906;6.952;2022-11-06T15:49:47;2.10;;;1.43;;
14754;SDS011;7469;50.906;6.952;2022-11-06T15:52:15;1.70;;;1.40;;
14754;SDS011;7469;50.906;6.952;2022-11-06T15:54:44;4.13;;;1.50;;
14754;SDS011;7469;50.906;6.952;2022-11-06T15:57:16;2.17;;;1.50;;
14754;SDS011;7469;50.906;6.952;2022-11-06T15:59:47;1.73;;;1.50;;
14754;SDS011;7469;50.906;6.952;2022-11-06T16:02:16;2.00;;;1.60;;
14754;SDS011;7469;50.906;6.952;2022-11-06T16:04:45;3.50;;;1.90;;
14754;SDS011;7469;50.906;6.952;2022-11-06T16:07:15;4.17;;;1.50;;